createdAt,value
2022-10-06T00:00:19.875Z,62.41
2022-10-06T00:01:19.902Z,66.10
2022-10-06T00:02:19.896Z,58.92
2022-10-06T00:03:19.810Z,67.21
2022-10-06T00:04:19.806Z,63.33
2022-10-06T00:05:19.830Z,56.15
2022-10-06T00:06:19.826Z,55.95
2022-10-06T00:07:19.855Z,55.44
2022-10-06T00:08:19.812Z,56.84
2022-10-06T00:09:19.783Z,59.36
2022-10-06T00:10:19.817Z,55.37
2022-10-06T00:11:19.781Z,56.39
2022-10-06T00:12:20.763Z,57.66
2022-10-06T00:13:19.778Z,62.01
2022-10-06T00:14:19.747Z,59.24
2022-10-06T00:15:19.752Z,56.00
2022-10-06T00:16:19.807Z,59.66
2022-10-06T00:17:19.763Z,53.87
2022-10-06T00:18:19.724Z,53.66
2022-10-06T00:19:19.745Z,54.34
2022-10-06T00:20:19.697Z,55.05
2022-10-06T00:21:19.726Z,59.62
2022-10-06T00:22:19.679Z,56.10
2022-10-06T00:23:19.699Z,56.12
2022-10-06T00:24:19.678Z,53.25
2022-10-06T00:25:19.679Z,59.96
2022-10-06T00:26:19.687Z,55.42
2022-10-06T00:27:19.654Z,63.04
2022-10-06T00:28:19.694Z,55.68
2022-10-06T00:29:19.642Z,56.31
2022-10-06T00:30:19.668Z,61.79
2022-10-06T00:31:19.967Z,65.02
2022-10-06T00:32:19.646Z,54.42
2022-10-06T00:33:19.616Z,57.61
2022-10-06T00:34:19.610Z,54.89
2022-10-06T00:35:19.594Z,55.23
2022-10-06T00:36:19.595Z,58.59
2022-10-06T00:37:19.591Z,55.47
2022-10-06T00:38:19.595Z,59.52
2022-10-06T00:39:19.562Z,54.52
2022-10-06T00:40:19.585Z,53.79
2022-10-06T00:41:19.559Z,55.60
2022-10-06T00:42:19.577Z,63.10
2022-10-06T00:43:19.542Z,55.32
2022-10-06T00:44:19.536Z,55.41
2022-10-06T00:45:19.544Z,55.70
2022-10-06T00:46:19.629Z,59.62
2022-10-06T00:47:19.525Z,57.90
2022-10-06T00:48:19.541Z,55.08
2022-10-06T00:49:19.501Z,58.47
2022-10-06T00:50:19.510Z,55.17
2022-10-06T00:51:19.490Z,55.44
2022-10-06T00:52:19.497Z,60.56
2022-10-06T00:53:19.475Z,59.37
2022-10-06T00:54:19.469Z,60.70
2022-10-06T00:55:19.474Z,54.15
2022-10-06T00:56:19.457Z,59.19
2022-10-06T00:57:19.521Z,58.99
2022-10-06T00:58:19.492Z,55.78
2022-10-06T00:59:19.449Z,55.81
2022-10-06T01:00:19.485Z,57.81
2022-10-06T01:01:19.480Z,61.04
2022-10-06T01:02:20.518Z,58.77
2022-10-06T01:03:19.409Z,54.31
2022-10-06T01:04:19.430Z,54.92
2022-10-06T01:05:19.429Z,55.59
2022-10-06T01:06:19.437Z,62.08
2022-10-06T01:07:19.387Z,56.59
2022-10-06T01:08:19.413Z,53.43
2022-10-06T01:09:19.426Z,59.53
2022-10-06T01:10:19.401Z,53.97
2022-10-06T01:11:19.360Z,54.55
2022-10-06T01:12:19.368Z,54.71
2022-10-06T01:13:19.345Z,58.58
2022-10-06T01:14:19.384Z,55.78
2022-10-06T01:15:19.342Z,59.36
2022-10-06T01:16:19.417Z,57.10
2022-10-06T01:17:19.308Z,57.35
2022-10-06T01:18:19.304Z,54.32
2022-10-06T01:19:19.310Z,59.67
2022-10-06T01:20:19.295Z,54.85
2022-10-06T01:21:19.327Z,55.30
2022-10-06T01:22:19.283Z,55.33
2022-10-06T01:23:19.294Z,55.47
2022-10-06T01:24:19.263Z,55.83
2022-10-06T01:25:19.262Z,55.59
2022-10-06T01:26:19.259Z,54.49
2022-10-06T01:27:19.243Z,54.75
2022-10-06T01:28:19.286Z,58.52
2022-10-06T01:29:19.227Z,59.73
2022-10-06T01:30:19.247Z,56.99
2022-10-06T01:31:19.310Z,57.33
2022-10-06T01:32:19.207Z,57.85
2022-10-06T01:33:19.219Z,55.26
2022-10-06T01:34:19.194Z,59.24
2022-10-06T01:35:19.181Z,56.69
2022-10-06T01:36:19.195Z,55.12
2022-10-06T01:37:19.183Z,56.00
2022-10-06T01:38:19.176Z,59.97
2022-10-06T01:39:19.167Z,56.63
2022-10-06T01:40:19.177Z,57.59
2022-10-06T01:41:19.164Z,59.91
2022-10-06T01:42:19.166Z,58.52
2022-10-06T01:43:19.144Z,54.50
2022-10-06T01:44:19.135Z,55.30
2022-10-06T01:45:19.138Z,55.08
2022-10-06T01:46:19.230Z,55.46
2022-10-06T01:47:19.125Z,54.18
2022-10-06T01:48:19.107Z,60.23
2022-10-06T01:49:19.114Z,58.18
2022-10-06T01:50:19.091Z,53.77
2022-10-06T01:51:19.111Z,55.16
2022-10-06T01:52:19.108Z,60.49
2022-10-06T01:53:19.077Z,58.59
2022-10-06T01:54:19.100Z,55.80
2022-10-06T01:55:19.075Z,57.22
2022-10-06T01:56:19.052Z,56.02
2022-10-06T01:57:19.059Z,55.25
2022-10-06T01:58:19.036Z,58.60
2022-10-06T01:59:19.097Z,54.94
2022-10-06T02:00:19.012Z,57.51
2022-10-06T02:01:19.095Z,61.04
2022-10-06T02:02:19.027Z,62.84
2022-10-06T02:03:19.029Z,53.71
2022-10-06T02:04:19.074Z,50.31
2022-10-06T02:05:18.992Z,55.89
2022-10-06T02:06:19.044Z,66.13
2022-10-06T02:07:18.971Z,54.17
2022-10-06T02:08:18.995Z,54.37
2022-10-06T02:09:18.971Z,54.63
2022-10-06T02:10:18.968Z,54.99
2022-10-06T02:11:18.951Z,55.16
2022-10-06T02:12:18.948Z,55.41
2022-10-06T02:13:18.963Z,56.75
2022-10-06T02:14:18.952Z,61.38
2022-10-06T02:15:18.929Z,61.59
2022-10-06T02:16:18.973Z,54.40
2022-10-06T02:17:18.928Z,55.37
2022-10-06T02:18:18.917Z,58.54
2022-10-06T02:19:18.907Z,55.92
2022-10-06T02:20:18.900Z,56.65
2022-10-06T02:21:18.888Z,55.28
2022-10-06T02:22:18.906Z,54.92
2022-10-06T02:23:18.935Z,62.34
2022-10-06T02:24:18.880Z,57.76
2022-10-06T02:25:18.861Z,55.93
2022-10-06T02:26:18.860Z,55.85
2022-10-06T02:27:18.835Z,59.58
2022-10-06T02:28:18.915Z,58.28
2022-10-06T02:29:18.847Z,63.00
2022-10-06T02:30:18.832Z,66.11
2022-10-06T02:31:18.904Z,61.81
2022-10-06T02:32:19.783Z,63.86
2022-10-06T02:33:18.810Z,59.10
2022-10-06T02:34:18.814Z,60.44
2022-10-06T02:35:18.807Z,56.94
2022-10-06T02:36:19.315Z,63.56
2022-10-06T02:37:18.780Z,62.01
2022-10-06T02:38:18.775Z,58.13
2022-10-06T02:39:18.758Z,66.71
2022-10-06T02:40:18.775Z,60.92
2022-10-06T02:41:18.759Z,63.45
2022-10-06T02:42:19.288Z,61.95
2022-10-06T02:43:18.752Z,62.85
2022-10-06T02:44:18.752Z,63.24
2022-10-06T02:45:18.747Z,58.32
2022-10-06T02:46:18.780Z,64.26
2022-10-06T02:47:18.721Z,55.98
2022-10-06T02:48:18.719Z,60.24
2022-10-06T02:49:18.723Z,57.06
2022-10-06T02:50:18.739Z,68.29
2022-10-06T02:51:18.726Z,62.35
2022-10-06T02:52:18.713Z,62.70
2022-10-06T02:53:18.686Z,60.84
2022-10-06T02:54:18.693Z,63.87
2022-10-06T02:55:18.665Z,55.93
2022-10-06T02:56:18.697Z,63.35
2022-10-06T02:57:18.682Z,66.69
2022-10-06T02:58:18.665Z,62.98
2022-10-06T02:59:18.689Z,64.92
2022-10-06T03:00:18.638Z,64.78
2022-10-06T03:01:18.710Z,63.91
2022-10-06T03:02:18.790Z,57.26
2022-10-06T03:03:18.656Z,61.39
2022-10-06T03:04:18.620Z,59.21
2022-10-06T03:05:18.637Z,57.01
2022-10-06T03:06:18.610Z,67.65
2022-10-06T03:07:18.609Z,64.31
2022-10-06T03:08:18.606Z,69.53
2022-10-06T03:09:18.588Z,62.14
2022-10-06T03:10:18.577Z,67.21
2022-10-06T03:11:18.613Z,64.04
2022-10-06T03:12:18.608Z,64.08
2022-10-06T03:13:18.573Z,65.84
2022-10-06T03:14:21.907Z,62.79
2022-10-06T03:15:19.552Z,62.87
2022-10-06T03:16:18.603Z,69.38
2022-10-06T03:17:18.573Z,60.15
2022-10-06T03:18:18.541Z,67.53
2022-10-06T03:19:18.529Z,69.60
2022-10-06T03:20:18.518Z,67.43
2022-10-06T03:21:18.532Z,64.28
2022-10-06T03:22:18.520Z,67.11
2022-10-06T03:23:18.505Z,61.49
2022-10-06T03:24:18.491Z,64.46
2022-10-06T03:25:18.526Z,63.70
2022-10-06T03:26:18.511Z,61.68
2022-10-06T03:27:18.488Z,64.16
2022-10-06T03:28:18.530Z,59.67
2022-10-06T03:29:18.467Z,66.41
2022-10-06T03:30:18.458Z,63.79
2022-10-06T03:31:18.473Z,72.04
2022-10-06T03:32:18.474Z,61.24
2022-10-06T03:33:18.447Z,59.13
2022-10-06T03:34:18.455Z,65.45
2022-10-06T03:35:18.438Z,63.69
2022-10-06T03:36:18.448Z,70.46
2022-10-06T03:37:18.450Z,67.84
2022-10-06T03:38:18.426Z,60.45
2022-10-06T03:39:18.395Z,72.29
2022-10-06T03:40:18.404Z,68.25
2022-10-06T03:41:18.399Z,67.38
2022-10-06T03:42:18.380Z,63.50
2022-10-06T03:43:18.541Z,69.36
2022-10-06T03:44:18.384Z,64.62
2022-10-06T03:45:18.383Z,65.52
2022-10-06T03:46:18.426Z,69.12
2022-10-06T03:47:18.375Z,62.85
2022-10-06T03:48:18.360Z,67.24
2022-10-06T03:49:18.351Z,71.09
2022-10-06T03:50:18.343Z,68.88
2022-10-06T03:51:18.416Z,67.10
2022-10-06T03:52:21.250Z,62.77
2022-10-06T03:53:19.328Z,72.74
2022-10-06T03:54:18.334Z,64.97
2022-10-06T03:55:18.321Z,69.98
2022-10-06T03:56:18.298Z,71.67
2022-10-06T03:57:18.306Z,68.04
2022-10-06T03:58:18.283Z,68.45
2022-10-06T03:59:18.283Z,74.52
2022-10-06T04:00:18.294Z,68.92
2022-10-06T04:01:21.097Z,69.35
2022-10-06T04:02:20.324Z,66.78
2022-10-06T04:03:18.261Z,67.52
2022-10-06T04:04:18.247Z,67.39
2022-10-06T04:05:18.271Z,73.58
2022-10-06T04:06:18.257Z,68.13
2022-10-06T04:07:18.254Z,68.13
2022-10-06T04:08:18.219Z,66.56
2022-10-06T04:09:18.233Z,65.93
2022-10-06T04:10:18.236Z,70.65
2022-10-06T04:11:18.225Z,69.84
2022-10-06T04:12:18.204Z,65.59
2022-10-06T04:13:18.200Z,68.23
2022-10-06T04:14:18.197Z,71.01
2022-10-06T04:15:18.196Z,66.84
2022-10-06T04:16:18.221Z,72.61
2022-10-06T04:17:18.192Z,61.84
2022-10-06T04:18:18.160Z,70.96
2022-10-06T04:19:18.160Z,63.62
2022-10-06T04:20:18.152Z,67.48
2022-10-06T04:21:18.145Z,66.05
2022-10-06T04:22:18.160Z,70.75
2022-10-06T04:23:18.181Z,69.13
2022-10-06T04:24:18.119Z,69.01
2022-10-06T04:25:18.125Z,71.16
2022-10-06T04:26:18.150Z,74.92
2022-10-06T04:27:18.124Z,73.16
2022-10-06T04:28:18.157Z,71.50
2022-10-06T04:29:18.102Z,70.62
2022-10-06T04:30:18.133Z,71.78
2022-10-06T04:31:18.184Z,65.44
2022-10-06T04:32:18.105Z,71.22
2022-10-06T04:33:18.074Z,65.30
2022-10-06T04:34:18.062Z,66.05
2022-10-06T04:35:18.058Z,66.71
2022-10-06T04:36:18.072Z,67.20
2022-10-06T04:37:18.058Z,65.37
2022-10-06T04:38:18.133Z,71.60
2022-10-06T04:39:18.039Z,71.38
2022-10-06T04:40:18.047Z,73.42
2022-10-06T04:41:18.050Z,75.26
2022-10-06T04:42:18.035Z,73.61
2022-10-06T04:43:18.024Z,70.81
2022-10-06T04:44:18.047Z,71.40
2022-10-06T04:45:18.002Z,72.17
2022-10-06T04:46:41.455Z,71.59
2022-10-06T04:47:19.993Z,74.39
2022-10-06T04:48:19.010Z,71.14
2022-10-06T04:49:20.302Z,68.33
2022-10-06T04:50:19.020Z,73.91
2022-10-06T04:51:17.968Z,73.05
2022-10-06T04:52:17.957Z,71.47
2022-10-06T04:53:17.980Z,70.06
2022-10-06T04:54:18.002Z,72.02
2022-10-06T04:55:19.412Z,71.02
2022-10-06T04:56:17.921Z,73.78
2022-10-06T04:57:17.973Z,71.68
2022-10-06T04:58:17.989Z,74.76
2022-10-06T04:59:17.948Z,69.96
2022-10-06T05:00:17.912Z,72.49
2022-10-06T05:01:17.938Z,72.56
2022-10-06T05:02:18.011Z,68.11
2022-10-06T05:03:17.914Z,72.39
2022-10-06T05:04:17.876Z,71.78
2022-10-06T05:05:17.959Z,68.51
2022-10-06T05:06:17.879Z,70.89
2022-10-06T05:07:17.887Z,69.08
2022-10-06T05:08:17.923Z,73.13
2022-10-06T05:09:17.870Z,72.74
2022-10-06T05:10:17.851Z,67.64
2022-10-06T05:11:20.329Z,72.97
2022-10-06T05:12:18.854Z,73.07
2022-10-06T05:13:17.828Z,72.16
2022-10-06T05:14:18.840Z,72.06
2022-10-06T05:15:17.844Z,73.31
2022-10-06T05:16:17.853Z,70.13
2022-10-06T05:17:17.804Z,72.17
2022-10-06T05:18:17.835Z,70.57
2022-10-06T05:19:17.778Z,72.35
2022-10-06T05:20:17.870Z,66.19
2022-10-06T05:21:17.769Z,74.56
2022-10-06T05:22:17.805Z,71.02
2022-10-06T05:23:17.774Z,69.20
2022-10-06T05:24:17.797Z,69.13
2022-10-06T05:25:17.774Z,70.40
2022-10-06T05:26:17.758Z,72.26
2022-10-06T05:27:17.769Z,73.05
2022-10-06T05:28:17.820Z,74.17
2022-10-06T05:29:17.731Z,72.29
2022-10-06T05:30:17.717Z,72.40
2022-10-06T05:31:17.747Z,71.82
2022-10-06T05:32:17.745Z,72.74
2022-10-06T05:33:17.689Z,71.69
2022-10-06T05:34:17.670Z,72.66
2022-10-06T05:35:18.682Z,74.14
2022-10-06T05:36:17.693Z,74.47
2022-10-06T05:37:17.745Z,69.50
2022-10-06T05:38:17.662Z,72.56
2022-10-06T05:39:17.651Z,71.21
2022-10-06T05:40:17.644Z,73.56
2022-10-06T05:41:17.664Z,74.23
2022-10-06T05:42:17.659Z,71.23
2022-10-06T05:43:17.627Z,72.56
2022-10-06T05:44:17.615Z,72.35
2022-10-06T05:45:17.647Z,69.26
2022-10-06T05:46:17.780Z,72.70
2022-10-06T05:47:17.618Z,70.96
2022-10-06T05:48:17.612Z,71.96
2022-10-06T05:49:17.597Z,72.20
2022-10-06T05:50:19.504Z,68.42
2022-10-06T05:51:17.573Z,73.28
2022-10-06T05:52:17.680Z,74.13
2022-10-06T05:53:17.550Z,70.98
2022-10-06T05:54:17.582Z,70.67
2022-10-06T05:55:17.558Z,71.21
2022-10-06T05:56:17.555Z,71.90
2022-10-06T05:57:17.533Z,69.09
2022-10-06T05:58:19.302Z,71.03
2022-10-06T05:59:17.535Z,73.66
2022-10-06T06:00:18.544Z,71.37
2022-10-06T06:01:17.604Z,72.98
2022-10-06T06:02:17.649Z,69.69
2022-10-06T06:03:17.522Z,73.27
2022-10-06T06:04:17.492Z,69.38
2022-10-06T06:05:17.499Z,73.74
2022-10-06T06:06:17.474Z,70.72
2022-10-06T06:07:17.486Z,73.11
2022-10-06T06:08:17.514Z,69.16
2022-10-06T06:09:17.518Z,71.93
2022-10-06T06:10:17.448Z,70.55
2022-10-06T06:11:17.490Z,72.85
2022-10-06T06:12:17.445Z,68.94
2022-10-06T06:13:17.434Z,73.03
2022-10-06T06:14:17.427Z,69.44
2022-10-06T06:15:17.414Z,73.18
2022-10-06T06:16:17.457Z,73.07
2022-10-06T06:17:17.426Z,70.97
2022-10-06T06:18:17.403Z,72.72
2022-10-06T06:19:17.377Z,70.82
2022-10-06T06:20:17.366Z,73.67
2022-10-06T06:21:18.394Z,69.90
2022-10-06T06:22:17.395Z,70.93
2022-10-06T06:23:17.395Z,70.87
2022-10-06T06:24:17.361Z,67.95
2022-10-06T06:25:17.350Z,64.30
2022-10-06T06:26:17.374Z,69.58
2022-10-06T06:27:17.355Z,70.15
2022-10-06T06:28:17.448Z,68.72
2022-10-06T06:29:17.323Z,70.95
2022-10-06T06:30:17.315Z,70.33
2022-10-06T06:31:20.321Z,69.57
2022-10-06T06:32:18.303Z,74.30
2022-10-06T06:33:17.294Z,66.02
2022-10-06T06:34:17.306Z,70.05
2022-10-06T06:35:17.308Z,74.56
2022-10-06T06:36:17.279Z,73.41
2022-10-06T06:37:17.294Z,70.40
2022-10-06T06:38:18.258Z,72.04
2022-10-06T06:39:17.258Z,74.11
2022-10-06T06:40:17.250Z,70.35
2022-10-06T06:41:17.245Z,70.99
2022-10-06T06:42:17.247Z,73.37
2022-10-06T06:43:17.244Z,71.63
2022-10-06T06:44:17.226Z,72.77
2022-10-06T06:45:17.245Z,74.59
2022-10-06T06:46:17.322Z,69.52
2022-10-06T06:47:17.221Z,75.27
2022-10-06T06:48:17.214Z,71.46
2022-10-06T06:49:17.210Z,75.00
2022-10-06T06:50:17.194Z,72.07
2022-10-06T06:51:17.199Z,71.90
2022-10-06T06:52:17.203Z,68.06
2022-10-06T06:53:17.175Z,72.57
2022-10-06T06:54:17.150Z,66.78
2022-10-06T06:55:17.162Z,66.46
2022-10-06T06:56:50.143Z,72.53
2022-10-06T06:57:17.122Z,69.48
2022-10-06T06:58:17.130Z,71.35
2022-10-06T06:59:17.166Z,71.43
2022-10-06T07:00:17.135Z,73.57
2022-10-06T07:01:17.146Z,68.45
2022-10-06T07:02:17.199Z,69.24
2022-10-06T07:03:32.795Z,67.94
2022-10-06T07:04:19.087Z,72.21
2022-10-06T07:05:17.090Z,72.26
2022-10-06T07:06:17.066Z,70.98
2022-10-06T07:07:17.090Z,72.38
2022-10-06T07:08:17.068Z,71.39
2022-10-06T07:09:17.828Z,73.22
2022-10-06T07:10:17.052Z,73.78
2022-10-06T07:11:17.044Z,72.54
2022-10-06T07:12:17.031Z,67.27
2022-10-06T07:13:17.504Z,73.38
2022-10-06T07:14:18.060Z,68.58
2022-10-06T07:15:17.088Z,69.70
2022-10-06T07:16:17.061Z,71.22
2022-10-06T07:17:16.993Z,67.78
2022-10-06T07:18:17.037Z,68.28
2022-10-06T07:19:20.092Z,66.76
2022-10-06T07:20:18.815Z,69.66
2022-10-06T07:21:16.976Z,72.33
2022-10-06T07:22:16.963Z,70.38
2022-10-06T07:23:16.976Z,71.36
2022-10-06T07:24:16.965Z,69.83
2022-10-06T07:25:19.449Z,67.05
2022-10-06T07:26:16.976Z,71.39
2022-10-06T07:27:16.925Z,71.41
2022-10-06T07:28:17.036Z,59.20
2022-10-06T07:29:17.115Z,68.03
2022-10-06T07:30:16.935Z,66.87
2022-10-06T07:31:16.953Z,66.60
2022-10-06T07:32:16.901Z,71.53
2022-10-06T07:33:16.912Z,70.96
2022-10-06T07:34:16.882Z,70.78
2022-10-06T07:35:16.945Z,69.90
2022-10-06T07:36:16.891Z,69.32
2022-10-06T07:37:16.866Z,72.57
2022-10-06T07:38:16.890Z,71.92
2022-10-06T07:39:16.879Z,68.96
2022-10-06T07:40:16.879Z,72.18
2022-10-06T07:41:19.821Z,70.13
2022-10-06T07:42:17.848Z,68.83
2022-10-06T07:43:16.925Z,67.29
2022-10-06T07:44:16.820Z,69.70
2022-10-06T07:45:16.876Z,63.73
2022-10-06T07:46:16.898Z,63.45
2022-10-06T07:47:16.819Z,70.20
2022-10-06T07:48:16.807Z,72.45
2022-10-06T07:49:16.815Z,69.44
2022-10-06T07:50:16.807Z,70.40
2022-10-06T07:51:16.915Z,70.27
2022-10-06T07:52:16.766Z,71.48
2022-10-06T07:53:16.753Z,66.86
2022-10-06T07:54:16.754Z,71.70
2022-10-06T07:55:16.782Z,71.26
2022-10-06T07:56:16.756Z,71.71
2022-10-06T07:57:16.783Z,73.06
2022-10-06T07:58:17.719Z,69.90
2022-10-06T07:59:19.312Z,71.61
2022-10-06T08:00:16.806Z,72.63
2022-10-06T08:01:16.775Z,69.73
2022-10-06T08:02:16.735Z,67.95
2022-10-06T08:03:17.007Z,73.13
2022-10-06T08:04:16.727Z,72.97
2022-10-06T08:05:16.675Z,64.44
2022-10-06T08:06:16.674Z,70.80
2022-10-06T08:07:16.658Z,72.65
2022-10-06T08:08:16.870Z,71.54
2022-10-06T08:09:16.675Z,67.09
2022-10-06T08:10:16.644Z,66.13
2022-10-06T08:11:16.656Z,70.17
2022-10-06T08:12:16.620Z,70.74
2022-10-06T08:13:16.633Z,67.80
2022-10-06T08:14:16.609Z,71.71
2022-10-06T08:15:16.905Z,72.25
2022-10-06T08:16:16.635Z,67.72
2022-10-06T08:17:16.589Z,65.71
2022-10-06T08:18:33.779Z,66.86
2022-10-06T08:19:18.599Z,71.28
2022-10-06T08:20:16.646Z,69.83
2022-10-06T08:21:16.612Z,70.42
2022-10-06T08:22:16.601Z,66.99
2022-10-06T08:23:16.702Z,67.47
2022-10-06T08:24:16.550Z,71.99
2022-10-06T08:25:16.981Z,70.49
2022-10-06T08:26:16.565Z,70.05
2022-10-06T08:27:16.518Z,73.59
2022-10-06T08:28:16.630Z,70.92
2022-10-06T08:29:16.582Z,70.36
2022-10-06T08:30:16.518Z,69.28
2022-10-06T08:31:16.568Z,70.73
2022-10-06T08:32:16.513Z,74.81
2022-10-06T08:33:19.051Z,68.57
2022-10-06T08:34:16.477Z,70.68
2022-10-06T08:35:16.514Z,68.15
2022-10-06T08:36:16.471Z,70.35
2022-10-06T08:37:20.113Z,69.26
2022-10-06T08:38:17.478Z,69.03
2022-10-06T08:39:16.465Z,69.59
2022-10-06T08:40:16.472Z,72.21
2022-10-06T08:41:16.577Z,68.39
2022-10-06T08:42:16.440Z,67.57
2022-10-06T08:43:16.443Z,59.69
2022-10-06T08:44:16.469Z,66.96
2022-10-06T08:45:16.476Z,74.46
2022-10-06T08:46:18.816Z,69.71
2022-10-06T08:47:16.556Z,70.07
2022-10-06T08:48:16.408Z,69.46
2022-10-06T08:49:16.395Z,70.23
2022-10-06T08:50:16.415Z,72.00
2022-10-06T08:51:16.451Z,70.35
2022-10-06T08:52:16.382Z,71.88
2022-10-06T08:53:16.485Z,70.34
2022-10-06T08:54:16.438Z,66.92
2022-10-06T08:55:16.361Z,68.11
2022-10-06T08:56:16.348Z,65.22
2022-10-06T08:57:16.358Z,69.88
2022-10-06T08:58:16.335Z,71.60
2022-10-06T08:59:16.396Z,68.52
2022-10-06T09:00:19.622Z,67.30
2022-10-06T09:01:18.355Z,68.46
2022-10-06T09:02:16.393Z,69.69
2022-10-06T09:03:16.328Z,73.76
2022-10-06T09:04:16.428Z,69.37
2022-10-06T09:05:16.356Z,70.68
2022-10-06T09:06:16.289Z,70.80
2022-10-06T09:07:16.347Z,74.86
2022-10-06T09:08:16.375Z,70.87
2022-10-06T09:09:16.266Z,72.91
2022-10-06T09:10:16.303Z,70.76
2022-10-06T09:11:16.267Z,73.37
2022-10-06T09:12:16.291Z,71.50
2022-10-06T09:13:20.969Z,70.78
2022-10-06T09:14:18.259Z,71.89
2022-10-06T09:15:16.250Z,70.96
2022-10-06T09:16:16.310Z,71.38
2022-10-06T09:17:16.238Z,65.01
2022-10-06T09:18:16.519Z,70.05
2022-10-06T09:19:16.459Z,68.30
2022-10-06T09:20:16.221Z,71.35
2022-10-06T09:21:16.328Z,71.28
2022-10-06T09:22:16.240Z,71.53
2022-10-06T09:23:16.216Z,70.63
2022-10-06T09:24:16.224Z,67.82
2022-10-06T09:25:16.185Z,66.83
2022-10-06T09:26:16.169Z,66.75
2022-10-06T09:27:16.180Z,68.99
2022-10-06T09:28:16.250Z,71.93
2022-10-06T09:29:16.152Z,71.49
2022-10-06T09:30:16.169Z,71.82
2022-10-06T09:31:16.234Z,68.55
2022-10-06T09:32:16.152Z,72.01
2022-10-06T09:33:16.147Z,71.20
2022-10-06T09:34:16.144Z,67.08
2022-10-06T09:35:16.111Z,71.14
2022-10-06T09:36:16.108Z,71.97
2022-10-06T09:37:16.155Z,71.40
2022-10-06T09:38:16.099Z,71.72
2022-10-06T09:39:16.111Z,68.31
2022-10-06T09:40:16.116Z,63.85
2022-10-06T09:41:16.097Z,68.87
2022-10-06T09:42:16.090Z,69.60
2022-10-06T09:43:16.078Z,64.69
2022-10-06T09:44:16.070Z,65.16
2022-10-06T09:45:16.160Z,71.69
2022-10-06T09:46:16.077Z,73.32
2022-10-06T09:47:16.046Z,67.91
2022-10-06T09:48:16.036Z,68.81
2022-10-06T09:49:16.050Z,70.09
2022-10-06T09:50:16.065Z,72.52
2022-10-06T09:51:16.037Z,72.03
2022-10-06T09:52:16.008Z,71.31
2022-10-06T09:53:16.040Z,71.58
2022-10-06T09:54:16.000Z,69.04
2022-10-06T09:55:16.008Z,71.26
2022-10-06T09:56:16.000Z,71.44
2022-10-06T09:57:15.977Z,66.64
2022-10-06T09:58:15.979Z,70.29
2022-10-06T09:59:15.984Z,67.14
2022-10-06T10:00:16.055Z,66.58
2022-10-06T10:01:16.076Z,71.68
2022-10-06T10:02:15.960Z,72.66
2022-10-06T10:03:16.068Z,72.54
2022-10-06T10:04:20.686Z,71.53
2022-10-06T10:05:16.983Z,67.07
2022-10-06T10:06:15.956Z,70.36
2022-10-06T10:07:15.930Z,72.60
2022-10-06T10:08:15.955Z,69.19
2022-10-06T10:09:17.850Z,72.51
2022-10-06T10:10:15.959Z,71.14
2022-10-06T10:11:15.920Z,71.50
2022-10-06T10:12:15.931Z,72.07
2022-10-06T10:13:15.952Z,70.91
2022-10-06T10:14:15.935Z,64.41
2022-10-06T10:15:15.896Z,68.75
2022-10-06T10:16:15.953Z,70.03
2022-10-06T10:17:15.917Z,69.98
2022-10-06T10:18:15.918Z,66.80
2022-10-06T10:19:15.883Z,69.02
2022-10-06T10:20:15.894Z,69.58
2022-10-06T10:21:15.870Z,71.53
2022-10-06T10:22:15.903Z,72.63
2022-10-06T10:23:15.870Z,72.08
2022-10-06T10:24:15.854Z,71.17
2022-10-06T10:25:15.838Z,69.61
2022-10-06T10:26:15.838Z,66.32
2022-10-06T10:27:15.844Z,72.08
2022-10-06T10:28:15.912Z,73.17
2022-10-06T10:29:15.883Z,64.44
2022-10-06T10:30:15.830Z,68.35
2022-10-06T10:31:15.852Z,71.79
2022-10-06T10:32:15.803Z,72.12
2022-10-06T10:33:15.876Z,68.36
2022-10-06T10:34:25.221Z,73.75
2022-10-06T10:35:17.806Z,72.59
2022-10-06T10:36:15.801Z,69.39
2022-10-06T10:37:15.791Z,68.37
2022-10-06T10:38:15.830Z,70.18
2022-10-06T10:39:15.789Z,69.85
2022-10-06T10:40:15.782Z,65.13
2022-10-06T10:41:16.376Z,68.91
2022-10-06T10:42:15.764Z,64.24
2022-10-06T10:43:15.775Z,68.23
2022-10-06T10:44:15.747Z,73.37
2022-10-06T10:45:15.786Z,69.03
2022-10-06T10:46:15.776Z,70.55
2022-10-06T10:47:15.778Z,72.23
2022-10-06T10:48:15.737Z,68.34
2022-10-06T10:49:15.756Z,65.94
2022-10-06T10:50:15.776Z,72.61
2022-10-06T10:51:16.380Z,68.72
2022-10-06T10:52:15.704Z,67.11
2022-10-06T10:53:15.749Z,70.39
2022-10-06T10:54:15.720Z,67.48
2022-10-06T10:55:15.692Z,69.27
2022-10-06T10:56:15.744Z,67.29
2022-10-06T10:57:15.725Z,73.68
2022-10-06T10:58:16.348Z,72.97
2022-10-06T10:59:15.684Z,70.18
2022-10-06T11:00:15.669Z,71.25
2022-10-06T11:01:15.803Z,71.78
2022-10-06T11:02:15.701Z,72.37
2022-10-06T11:03:15.661Z,75.17
2022-10-06T11:04:15.660Z,70.89
2022-10-06T11:05:16.664Z,70.39
2022-10-06T11:06:15.680Z,71.86
2022-10-06T11:07:15.653Z,69.21
2022-10-06T11:08:15.681Z,70.95
2022-10-06T11:09:15.664Z,70.61
2022-10-06T11:10:15.752Z,72.35
2022-10-06T11:11:15.685Z,70.11
2022-10-06T11:12:15.637Z,72.40
2022-10-06T11:13:15.645Z,69.28
2022-10-06T11:14:15.710Z,76.14
2022-10-06T11:15:15.649Z,72.20
2022-10-06T11:16:15.638Z,72.87
2022-10-06T11:17:15.600Z,72.10
2022-10-06T11:18:19.455Z,70.31
2022-10-06T11:19:16.653Z,71.91
2022-10-06T11:20:15.596Z,68.68
2022-10-06T11:21:15.591Z,70.32
2022-10-06T11:22:15.572Z,71.06
2022-10-06T11:23:15.572Z,72.10
2022-10-06T11:24:15.609Z,68.14
2022-10-06T11:25:15.615Z,76.51
2022-10-06T11:26:15.524Z,70.36
2022-10-06T11:27:15.533Z,71.67
2022-10-06T11:28:15.563Z,72.15
2022-10-06T11:29:15.508Z,71.95
2022-10-06T11:30:15.497Z,71.14
2022-10-06T11:31:20.193Z,70.94
2022-10-06T11:32:17.521Z,72.79
2022-10-06T11:33:15.488Z,72.21
2022-10-06T11:34:15.464Z,73.37
2022-10-06T11:35:15.465Z,71.67
2022-10-06T11:36:15.508Z,69.14
2022-10-06T11:37:16.404Z,71.71
2022-10-06T11:38:15.484Z,72.01
2022-10-06T11:39:15.484Z,72.85
2022-10-06T11:40:16.380Z,73.47
2022-10-06T11:41:15.456Z,69.70
2022-10-06T11:42:15.469Z,68.42
2022-10-06T11:43:15.499Z,73.73
2022-10-06T11:44:15.449Z,70.73
2022-10-06T11:45:15.430Z,70.31
2022-10-06T11:46:15.484Z,71.02
2022-10-06T11:47:15.474Z,70.14
2022-10-06T11:48:15.385Z,69.02
2022-10-06T11:49:15.403Z,73.70
2022-10-06T11:50:15.392Z,72.07
2022-10-06T11:51:16.396Z,64.44
2022-10-06T11:52:15.370Z,70.88
2022-10-06T11:53:15.360Z,70.11
2022-10-06T11:54:15.372Z,70.70
2022-10-06T11:55:15.371Z,73.06
2022-10-06T11:56:15.369Z,69.74
2022-10-06T11:57:15.349Z,70.91
2022-10-06T11:58:41.887Z,71.10
2022-10-06T11:59:17.352Z,72.96
2022-10-06T12:00:15.309Z,72.24
2022-10-06T12:01:15.312Z,69.63
2022-10-06T12:02:15.497Z,70.51
2022-10-06T12:03:15.396Z,70.66
2022-10-06T12:04:15.305Z,72.20
2022-10-06T12:05:49.617Z,70.61
2022-10-06T12:06:17.296Z,69.10
2022-10-06T12:07:15.293Z,71.33
2022-10-06T12:08:15.327Z,69.23
2022-10-06T12:09:15.916Z,71.32
2022-10-06T12:10:15.258Z,70.41
2022-10-06T12:11:15.279Z,66.47
2022-10-06T12:12:15.267Z,70.35
2022-10-06T12:13:51.018Z,72.83
2022-10-06T12:17:05.576Z,74.48
2022-10-06T12:17:08.508Z,73.28
2022-10-06T12:17:19.747Z,71.65
2022-10-06T12:18:16.471Z,72.71
2022-10-06T12:19:15.261Z,72.26
2022-10-06T12:20:15.214Z,75.53
2022-10-06T12:21:15.199Z,70.85
2022-10-06T12:22:15.205Z,72.77
2022-10-06T12:23:15.233Z,71.82
2022-10-06T12:24:15.293Z,72.02
2022-10-06T12:25:15.178Z,73.03
2022-10-06T12:26:16.174Z,70.38
2022-10-06T12:27:15.188Z,72.39
2022-10-06T12:28:15.256Z,72.50
2022-10-06T12:29:15.152Z,74.02
2022-10-06T12:30:16.188Z,72.26
2022-10-06T12:31:18.313Z,67.38
2022-10-06T12:32:16.121Z,73.54
2022-10-06T12:33:15.144Z,71.60
2022-10-06T12:34:15.102Z,72.77
2022-10-06T12:35:15.121Z,69.89
2022-10-06T12:36:15.325Z,72.54
2022-10-06T12:37:15.142Z,74.15
2022-10-06T12:38:15.135Z,72.72
2022-10-06T12:39:15.077Z,67.73
2022-10-06T12:40:15.126Z,73.69
2022-10-06T12:41:15.085Z,70.46
2022-10-06T12:42:15.122Z,70.92
2022-10-06T12:43:15.051Z,72.57
2022-10-06T12:44:15.053Z,71.33
2022-10-06T12:45:15.035Z,73.99
2022-10-06T12:46:15.082Z,71.51
2022-10-06T12:47:15.033Z,72.46
2022-10-06T12:48:16.262Z,70.76
2022-10-06T12:49:15.014Z,71.32
2022-10-06T12:50:14.989Z,69.26
2022-10-06T12:51:15.006Z,70.90
2022-10-06T12:52:15.029Z,70.96
2022-10-06T12:53:15.017Z,73.07